sensor_id;sensor_type;location;lat;lon;timestamp;P1;durP1;ratioP1;P2;durP2;ratioP2
74328;SDS011;62745;51.060;13.786;2022-11-15T00:00:01;38.63;;;19.07;;
74328;SDS011;62745;51.060;13.786;2022-11-15T00:02:26;39.03;;;21.20;;
74328;SDS011;62745;51.060;13.786;2022-11-15T00:04:51;44.58;;;22.85;;
74328;SDS011;62745;51.060;13.786;2022-11-15T00:07:17;43.60;;;22.33;;
74328;SDS011;62745;51.060;13.786;2022-11-15T00:09:42;37.40;;;21.87;;
74328;SDS011;62745;51.060;13.786;2022-11-15T00:12:07;42.83;;;21.70;;
74328;SDS011;62745;51.060;13.786;2022-11-15T00:14:32;40.83;;;21.70;;
74328;SDS011;62745;51.060;13.786;2022-11-15T00:16:57;40.87;;;20.50;;
74328;SDS011;62745;51.060;13.786;2022-11-15T00:19:23;40.67;;;20.77;;
74328;SDS011;62745;51.060;13.786;2022-11-15T00:21:48;42.03;;;21.40;;
74328;SDS011;62745;51.060;13.786;2022-11-15T00:24:13;46.23;;;22.10;;
74328;SDS011;62745;51.060;13.786;2022-11-15T00:26:39;46.50;;;23.73;;
74328;SDS011;62745;51.060;13.786;2022-11-15T00:29:04;42.30;;;21.80;;
74328;SDS011;62745;51.060;13.786;2022-11-15T00:31:30;40.85;;;21.30;;
74328;SDS011;62745;51.060;13.786;2022-11-15T00:33:55;46.23;;;23.00;;
74328;SDS011;62745;51.060;13.786;2022-11-15T00:36:20;42.37;;;21.53;;
74328;SDS011;62745;51.060;13.786;2022-11-15T00:38:46;45.40;;;22.97;;
74328;SDS011;62745;51.060;13.786;2022-11-15T00:41:11;48.83;;;24.80;;
74328;SDS011;62745;51.060;13.786;2022-11-15T00:43:36;47.53;;;22.60;;
74328;SDS011;62745;51.060;13.786;2022-11-15T00:46:02;46.63;;;22.90;;
74328;SDS011;62745;51.060;13.786;2022-11-15T00:48:27;49.08;;;23.30;;
74328;SDS011;62745;51.060;13.786;2022-11-15T00:50:53;51.22;;;24.10;;
74328;SDS011;62745;51.060;13.786;2022-11-15T00:53:18;48.77;;;22.93;;
74328;SDS011;62745;51.060;13.786;2022-11-15T00:55:43;49.67;;;23.43;;
74328;SDS011;62745;51.060;13.786;2022-11-15T00:58:09;43.53;;;22.77;;
74328;SDS011;62745;51.060;13.786;2022-11-15T01:00:34;47.88;;;21.70;;
74328;SDS011;62745;51.060;13.786;2022-11-15T01:03:00;44.92;;;23.60;;
74328;SDS011;62745;51.060;13.786;2022-11-15T01:05:26;48.25;;;22.98;;
74328;SDS011;62745;51.060;13.786;2022-11-15T01:07:52;48.70;;;23.40;;
74328;SDS011;62745;51.060;13.786;2022-11-15T01:10:18;48.17;;;24.58;;
74328;SDS011;62745;51.060;13.786;2022-11-15T01:12:44;45.72;;;22.10;;
74328;SDS011;62745;51.060;13.786;2022-11-15T01:15:10;49.83;;;24.88;;
74328;SDS011;62745;51.060;13.786;2022-11-15T01:17:35;42.83;;;21.67;;
74328;SDS011;62745;51.060;13.786;2022-11-15T01:20:01;48.97;;;22.23;;
74328;SDS011;62745;51.060;13.786;2022-11-15T01:22:26;50.92;;;23.75;;
74328;SDS011;62745;51.060;13.786;2022-11-15T01:24:52;45.92;;;22.50;;
74328;SDS011;62745;51.060;13.786;2022-11-15T01:27:17;44.77;;;20.50;;
74328;SDS011;62745;51.060;13.786;2022-11-15T01:29:42;48.17;;;22.15;;
74328;SDS011;62745;51.060;13.786;2022-11-15T01:32:08;45.88;;;21.05;;
74328;SDS011;62745;51.060;13.786;2022-11-15T01:34:33;43.00;;;20.80;;
74328;SDS011;62745;51.060;13.786;2022-11-15T01:36:58;47.17;;;21.70;;
74328;SDS011;62745;51.060;13.786;2022-11-15T01:39:24;45.40;;;21.23;;
74328;SDS011;62745;51.060;13.786;2022-11-15T01:41:49;46.72;;;21.83;;
74328;SDS011;62745;51.060;13.786;2022-11-15T01:46:58;46.75;;;21.17;;
74328;SDS011;62745;51.060;13.786;2022-11-15T01:49:26;45.22;;;19.85;;
74328;SDS011;62745;51.060;13.786;2022-11-15T01:51:55;47.20;;;21.70;;
74328;SDS011;62745;51.060;13.786;2022-11-15T01:54:21;44.47;;;21.95;;
74328;SDS011;62745;51.060;13.786;2022-11-15T01:56:50;44.20;;;20.88;;
74328;SDS011;62745;51.060;13.786;2022-11-15T01:59:37;41.08;;;20.67;;
74328;SDS011;62745;51.060;13.786;2022-11-15T02:02:07;47.13;;;21.17;;
74328;SDS011;62745;51.060;13.786;2022-11-15T02:04:34;44.90;;;19.92;;
74328;SDS011;62745;51.060;13.786;2022-11-15T02:07:03;42.28;;;19.70;;
74328;SDS011;62745;51.060;13.786;2022-11-15T02:09:30;47.20;;;21.05;;
74328;SDS011;62745;51.060;13.786;2022-11-15T02:11:56;47.33;;;21.17;;
74328;SDS011;62745;51.060;13.786;2022-11-15T02:14:22;44.45;;;20.73;;
74328;SDS011;62745;51.060;13.786;2022-11-15T02:28:10;47.03;;;21.63;;
74328;SDS011;62745;51.060;13.786;2022-11-15T02:34:35;43.88;;;19.45;;
74328;SDS011;62745;51.060;13.786;2022-11-15T02:39:41;47.28;;;20.88;;
74328;SDS011;62745;51.060;13.786;2022-11-15T02:42:16;39.60;;;18.50;;
74328;SDS011;62745;51.060;13.786;2022-11-15T02:45:05;42.55;;;17.98;;
74328;SDS011;62745;51.060;13.786;2022-11-15T02:47:35;38.20;;;18.75;;
74328;SDS011;62745;51.060;13.786;2022-11-15T02:50:07;42.55;;;19.33;;
74328;SDS011;62745;51.060;13.786;2022-11-15T02:52:34;39.13;;;19.90;;
74328;SDS011;62745;51.060;13.786;2022-11-15T02:55:00;41.07;;;20.90;;
74328;SDS011;62745;51.060;13.786;2022-11-15T03:00:16;42.15;;;19.60;;
74328;SDS011;62745;51.060;13.786;2022-11-15T03:08:10;39.67;;;19.02;;
74328;SDS011;62745;51.060;13.786;2022-11-15T03:13:28;32.97;;;16.02;;
74328;SDS011;62745;51.060;13.786;2022-11-15T03:16:06;36.72;;;16.40;;
74328;SDS011;62745;51.060;13.786;2022-11-15T03:18:42;37.67;;;17.80;;
74328;SDS011;62745;51.060;13.786;2022-11-15T03:21:11;37.97;;;18.02;;
74328;SDS011;62745;51.060;13.786;2022-11-15T03:23:39;40.47;;;17.98;;
74328;SDS011;62745;51.060;13.786;2022-11-15T03:26:07;38.22;;;18.00;;
74328;SDS011;62745;51.060;13.786;2022-11-15T03:31:04;34.80;;;16.35;;
74328;SDS011;62745;51.060;13.786;2022-11-15T03:33:51;34.83;;;15.85;;
74328;SDS011;62745;51.060;13.786;2022-11-15T03:36:20;37.70;;;17.45;;
74328;SDS011;62745;51.060;13.786;2022-11-15T03:38:47;37.55;;;17.50;;
74328;SDS011;62745;51.060;13.786;2022-11-15T03:41:17;35.38;;;16.92;;
74328;SDS011;62745;51.060;13.786;2022-11-15T03:43:56;32.55;;;16.25;;
74328;SDS011;62745;51.060;13.786;2022-11-15T03:46:32;35.88;;;16.52;;
74328;SDS011;62745;51.060;13.786;2022-11-15T03:49:04;37.30;;;16.23;;
74328;SDS011;62745;51.060;13.786;2022-11-15T03:51:34;33.00;;;15.40;;
74328;SDS011;62745;51.060;13.786;2022-11-15T03:53:59;33.45;;;16.35;;
74328;SDS011;62745;51.060;13.786;2022-11-15T03:56:28;34.40;;;15.80;;
74328;SDS011;62745;51.060;13.786;2022-11-15T03:58:54;35.67;;;16.95;;
74328;SDS011;62745;51.060;13.786;2022-11-15T04:01:19;35.83;;;17.37;;
74328;SDS011;62745;51.060;13.786;2022-11-15T04:03:44;34.53;;;16.43;;
74328;SDS011;62745;51.060;13.786;2022-11-15T04:06:09;34.40;;;16.03;;
74328;SDS011;62745;51.060;13.786;2022-11-15T04:08:34;35.53;;;16.00;;
74328;SDS011;62745;51.060;13.786;2022-11-15T04:11:00;34.00;;;15.93;;
74328;SDS011;62745;51.060;13.786;2022-11-15T04:13:25;34.33;;;16.00;;
74328;SDS011;62745;51.060;13.786;2022-11-15T04:15:51;32.10;;;14.00;;
74328;SDS011;62745;51.060;13.786;2022-11-15T04:18:16;32.90;;;14.98;;
74328;SDS011;62745;51.060;13.786;2022-11-15T04:20:41;30.47;;;15.53;;
74328;SDS011;62745;51.060;13.786;2022-11-15T04:23:25;32.25;;;15.23;;
74328;SDS011;62745;51.060;13.786;2022-11-15T04:26:10;31.25;;;15.48;;
74328;SDS011;62745;51.060;13.786;2022-11-15T04:28:39;34.67;;;15.85;;
74328;SDS011;62745;51.060;13.786;2022-11-15T04:31:24;32.22;;;16.33;;
74328;SDS011;62745;51.060;13.786;2022-11-15T04:33:50;30.75;;;14.60;;
74328;SDS011;62745;51.060;13.786;2022-11-15T04:36:15;36.58;;;16.50;;
74328;SDS011;62745;51.060;13.786;2022-11-15T04:38:59;33.50;;;14.98;;
74328;SDS011;62745;51.060;13.786;2022-11-15T04:41:24;33.07;;;16.07;;
74328;SDS011;62745;51.060;13.786;2022-11-15T04:43:50;35.80;;;16.08;;
74328;SDS011;62745;51.060;13.786;2022-11-15T04:46:15;31.23;;;14.33;;
74328;SDS011;62745;51.060;13.786;2022-11-15T04:48:40;32.97;;;15.73;;
74328;SDS011;62745;51.060;13.786;2022-11-15T04:51:05;31.03;;;16.23;;
74328;SDS011;62745;51.060;13.786;2022-11-15T04:53:31;31.47;;;15.33;;
74328;SDS011;62745;51.060;13.786;2022-11-15T04:55:56;30.97;;;14.43;;
74328;SDS011;62745;51.060;13.786;2022-11-15T04:58:21;33.13;;;14.97;;
74328;SDS011;62745;51.060;13.786;2022-11-15T05:00:47;33.50;;;15.63;;
74328;SDS011;62745;51.060;13.786;2022-11-15T05:03:12;31.80;;;14.95;;
74328;SDS011;62745;51.060;13.786;2022-11-15T05:05:57;30.60;;;14.18;;
74328;SDS011;62745;51.060;13.786;2022-11-15T05:08:22;29.65;;;14.20;;
74328;SDS011;62745;51.060;13.786;2022-11-15T05:10:48;31.90;;;15.13;;
74328;SDS011;62745;51.060;13.786;2022-11-15T05:13:13;32.27;;;14.03;;
74328;SDS011;62745;51.060;13.786;2022-11-15T05:15:38;31.80;;;14.87;;
74328;SDS011;62745;51.060;13.786;2022-11-15T05:18:03;29.00;;;13.90;;
74328;SDS011;62745;51.060;13.786;2022-11-15T05:20:29;28.10;;;13.80;;
74328;SDS011;62745;51.060;13.786;2022-11-15T05:22:54;30.43;;;13.80;;
74328;SDS011;62745;51.060;13.786;2022-11-15T05:25:21;33.22;;;15.40;;
74328;SDS011;62745;51.060;13.786;2022-11-15T05:27:47;37.60;;;15.50;;
74328;SDS011;62745;51.060;13.786;2022-11-15T05:30:12;29.88;;;14.50;;
74328;SDS011;62745;51.060;13.786;2022-11-15T05:32:38;30.95;;;14.10;;
74328;SDS011;62745;51.060;13.786;2022-11-15T05:35:04;32.78;;;14.75;;
74328;SDS011;62745;51.060;13.786;2022-11-15T05:37:33;30.33;;;14.95;;
74328;SDS011;62745;51.060;13.786;2022-11-15T05:39:58;31.17;;;15.20;;
74328;SDS011;62745;51.060;13.786;2022-11-15T05:42:24;30.53;;;15.50;;
74328;SDS011;62745;51.060;13.786;2022-11-15T05:44:51;30.65;;;14.98;;
74328;SDS011;62745;51.060;13.786;2022-11-15T05:47:18;34.08;;;15.10;;
74328;SDS011;62745;51.060;13.786;2022-11-15T05:49:48;33.40;;;15.07;;
74328;SDS011;62745;51.060;13.786;2022-11-15T05:52:16;31.00;;;14.50;;
74328;SDS011;62745;51.060;13.786;2022-11-15T05:54:45;32.35;;;15.95;;
74328;SDS011;62745;51.060;13.786;2022-11-15T05:57:10;28.85;;;14.57;;
74328;SDS011;62745;51.060;13.786;2022-11-15T05:59:36;28.27;;;13.05;;
74328;SDS011;62745;51.060;13.786;2022-11-15T06:02:02;31.33;;;15.43;;
74328;SDS011;62745;51.060;13.786;2022-11-15T06:04:27;29.75;;;13.77;;
74328;SDS011;62745;51.060;13.786;2022-11-15T06:06:53;30.90;;;15.30;;
74328;SDS011;62745;51.060;13.786;2022-11-15T06:09:21;36.77;;;15.27;;
74328;SDS011;62745;51.060;13.786;2022-11-15T06:11:53;28.58;;;13.90;;
74328;SDS011;62745;51.060;13.786;2022-11-15T06:14:18;35.65;;;14.40;;
74328;SDS011;62745;51.060;13.786;2022-11-15T06:16:43;33.90;;;13.48;;
74328;SDS011;62745;51.060;13.786;2022-11-15T06:19:09;29.23;;;14.23;;
74328;SDS011;62745;51.060;13.786;2022-11-15T06:21:34;31.08;;;14.05;;
74328;SDS011;62745;51.060;13.786;2022-11-15T06:23:59;30.97;;;14.27;;
74328;SDS011;62745;51.060;13.786;2022-11-15T06:26:25;34.33;;;14.37;;
74328;SDS011;62745;51.060;13.786;2022-11-15T06:28:50;32.93;;;14.60;;
74328;SDS011;62745;51.060;13.786;2022-11-15T06:31:15;33.03;;;15.07;;
74328;SDS011;62745;51.060;13.786;2022-11-15T06:33:41;31.90;;;15.32;;
74328;SDS011;62745;51.060;13.786;2022-11-15T06:36:07;31.00;;;15.02;;
74328;SDS011;62745;51.060;13.786;2022-11-15T06:38:35;34.05;;;14.55;;
74328;SDS011;62745;51.060;13.786;2022-11-15T06:41:01;36.33;;;16.42;;
74328;SDS011;62745;51.060;13.786;2022-11-15T06:45:57;28.67;;;14.18;;
74328;SDS011;62745;51.060;13.786;2022-11-15T06:48:26;32.83;;;14.25;;
74328;SDS011;62745;51.060;13.786;2022-11-15T06:50:56;29.85;;;13.75;;
74328;SDS011;62745;51.060;13.786;2022-11-15T06:53:23;27.00;;;13.82;;
74328;SDS011;62745;51.060;13.786;2022-11-15T06:55:49;35.00;;;15.50;;
74328;SDS011;62745;51.060;13.786;2022-11-15T06:58:14;31.50;;;15.20;;
74328;SDS011;62745;51.060;13.786;2022-11-15T07:00:39;33.60;;;14.57;;
74328;SDS011;62745;51.060;13.786;2022-11-15T07:03:05;34.08;;;16.27;;
74328;SDS011;62745;51.060;13.786;2022-11-15T07:05:31;32.65;;;15.25;;
74328;SDS011;62745;51.060;13.786;2022-11-15T07:07:57;32.70;;;16.17;;
74328;SDS011;62745;51.060;13.786;2022-11-15T07:10:23;29.85;;;13.93;;
74328;SDS011;62745;51.060;13.786;2022-11-15T07:12:49;34.50;;;15.27;;
74328;SDS011;62745;51.060;13.786;2022-11-15T07:15:18;30.67;;;14.82;;
74328;SDS011;62745;51.060;13.786;2022-11-15T07:17:44;28.20;;;13.73;;
74328;SDS011;62745;51.060;13.786;2022-11-15T07:20:10;25.80;;;12.75;;
74328;SDS011;62745;51.060;13.786;2022-11-15T07:22:36;31.83;;;15.65;;
74328;SDS011;62745;51.060;13.786;2022-11-15T07:25:02;30.17;;;14.23;;
74328;SDS011;62745;51.060;13.786;2022-11-15T07:27:27;29.33;;;13.52;;
74328;SDS011;62745;51.060;13.786;2022-11-15T07:29:53;30.47;;;14.67;;
74328;SDS011;62745;51.060;13.786;2022-11-15T07:32:18;30.23;;;13.17;;
74328;SDS011;62745;51.060;13.786;2022-11-15T07:34:43;27.13;;;12.80;;
74328;SDS011;62745;51.060;13.786;2022-11-15T07:37:10;29.15;;;13.27;;
74328;SDS011;62745;51.060;13.786;2022-11-15T07:39:36;30.45;;;14.57;;
74328;SDS011;62745;51.060;13.786;2022-11-15T07:42:01;31.37;;;15.27;;
74328;SDS011;62745;51.060;13.786;2022-11-15T07:44:45;30.30;;;13.35;;
74328;SDS011;62745;51.060;13.786;2022-11-15T07:47:10;27.23;;;13.30;;
74328;SDS011;62745;51.060;13.786;2022-11-15T07:49:35;26.13;;;13.30;;
74328;SDS011;62745;51.060;13.786;2022-11-15T07:52:01;30.63;;;14.50;;
74328;SDS011;62745;51.060;13.786;2022-11-15T07:54:26;28.55;;;13.07;;
74328;SDS011;62745;51.060;13.786;2022-11-15T07:56:51;32.73;;;13.60;;
74328;SDS011;62745;51.060;13.786;2022-11-15T07:59:16;28.47;;;13.80;;
74328;SDS011;62745;51.060;13.786;2022-11-15T08:01:42;25.40;;;12.57;;
74328;SDS011;62745;51.060;13.786;2022-11-15T08:04:07;26.53;;;13.80;;
74328;SDS011;62745;51.060;13.786;2022-11-15T08:06:32;24.60;;;11.60;;
74328;SDS011;62745;51.060;13.786;2022-11-15T08:08:57;24.50;;;12.47;;
74328;SDS011;62745;51.060;13.786;2022-11-15T08:11:23;24.70;;;12.47;;
74328;SDS011;62745;51.060;13.786;2022-11-15T08:13:48;23.07;;;12.77;;
74328;SDS011;62745;51.060;13.786;2022-11-15T08:16:13;23.63;;;11.43;;
74328;SDS011;62745;51.060;13.786;2022-11-15T08:18:39;20.63;;;10.45;;
74328;SDS011;62745;51.060;13.786;2022-11-15T08:21:04;22.37;;;11.47;;
74328;SDS011;62745;51.060;13.786;2022-11-15T08:23:29;19.87;;;10.00;;
74328;SDS011;62745;51.060;13.786;2022-11-15T08:25:59;19.15;;;10.32;;
74328;SDS011;62745;51.060;13.786;2022-11-15T08:28:26;20.08;;;10.23;;
74328;SDS011;62745;51.060;13.786;2022-11-15T08:30:51;18.40;;;9.82;;
74328;SDS011;62745;51.060;13.786;2022-11-15T08:33:16;20.58;;;10.88;;
74328;SDS011;62745;51.060;13.786;2022-11-15T08:35:42;20.73;;;11.17;;
74328;SDS011;62745;51.060;13.786;2022-11-15T08:38:08;18.10;;;9.23;;
74328;SDS011;62745;51.060;13.786;2022-11-15T08:40:34;18.52;;;9.27;;
74328;SDS011;62745;51.060;13.786;2022-11-15T08:42:59;21.60;;;9.82;;
74328;SDS011;62745;51.060;13.786;2022-11-15T08:45:27;19.48;;;10.88;;
74328;SDS011;62745;51.060;13.786;2022-11-15T08:47:52;21.55;;;11.13;;
74328;SDS011;62745;51.060;13.786;2022-11-15T08:50:18;18.03;;;10.43;;
74328;SDS011;62745;51.060;13.786;2022-11-15T08:52:43;20.40;;;10.73;;
74328;SDS011;62745;51.060;13.786;2022-11-15T08:55:08;20.33;;;11.33;;
74328;SDS011;62745;51.060;13.786;2022-11-15T08:57:33;20.63;;;11.27;;
74328;SDS011;62745;51.060;13.786;2022-11-15T08:59:59;22.77;;;12.20;;
74328;SDS011;62745;51.060;13.786;2022-11-15T09:02:24;20.97;;;10.60;;
74328;SDS011;62745;51.060;13.786;2022-11-15T09:04:49;18.60;;;9.57;;
74328;SDS011;62745;51.060;13.786;2022-11-15T09:07:15;20.83;;;10.40;;
74328;SDS011;62745;51.060;13.786;2022-11-15T09:09:40;19.50;;;10.10;;
74328;SDS011;62745;51.060;13.786;2022-11-15T09:12:05;21.23;;;10.40;;
74328;SDS011;62745;51.060;13.786;2022-11-15T09:14:31;19.58;;;11.57;;
74328;SDS011;62745;51.060;13.786;2022-11-15T09:16:57;19.02;;;9.73;;
74328;SDS011;62745;51.060;13.786;2022-11-15T09:19:23;21.13;;;11.38;;
74328;SDS011;62745;51.060;13.786;2022-11-15T09:21:49;21.25;;;10.20;;
74328;SDS011;62745;51.060;13.786;2022-11-15T09:24:15;21.10;;;10.80;;
74328;SDS011;62745;51.060;13.786;2022-11-15T09:26:40;22.10;;;12.20;;
74328;SDS011;62745;51.060;13.786;2022-11-15T09:29:05;20.75;;;10.70;;
74328;SDS011;62745;51.060;13.786;2022-11-15T09:31:31;19.77;;;10.07;;
74328;SDS011;62745;51.060;13.786;2022-11-15T09:33:56;22.02;;;11.68;;
74328;SDS011;62745;51.060;13.786;2022-11-15T09:36:22;18.60;;;10.18;;
74328;SDS011;62745;51.060;13.786;2022-11-15T09:38:47;20.80;;;10.80;;
74328;SDS011;62745;51.060;13.786;2022-11-15T09:43:42;17.80;;;10.70;;
74328;SDS011;62745;51.060;13.786;2022-11-15T09:48:56;18.58;;;10.68;;
74328;SDS011;62745;51.060;13.786;2022-11-15T09:54:13;21.92;;;10.35;;
74328;SDS011;62745;51.060;13.786;2022-11-15T09:56:48;21.05;;;10.73;;
74328;SDS011;62745;51.060;13.786;2022-11-15T09:59:33;23.25;;;12.13;;
74328;SDS011;62745;51.060;13.786;2022-11-15T10:04:48;18.42;;;9.80;;
74328;SDS011;62745;51.060;13.786;2022-11-15T10:07:16;21.35;;;11.32;;
74328;SDS011;62745;51.060;13.786;2022-11-15T10:10:12;19.48;;;11.05;;
74328;SDS011;62745;51.060;13.786;2022-11-15T10:12:47;23.70;;;11.65;;
74328;SDS011;62745;51.060;13.786;2022-11-15T10:15:16;23.77;;;11.55;;
74328;SDS011;62745;51.060;13.786;2022-11-15T10:20:51;18.00;;;9.60;;
74328;SDS011;62745;51.060;13.786;2022-11-15T10:23:22;19.27;;;10.93;;
74328;SDS011;62745;51.060;13.786;2022-11-15T10:25:50;19.30;;;10.63;;
74328;SDS011;62745;51.060;13.786;2022-11-15T10:30:54;18.65;;;10.52;;
74328;SDS011;62745;51.060;13.786;2022-11-15T10:46:38;17.17;;;9.60;;
74328;SDS011;62745;51.060;13.786;2022-11-15T10:49:19;19.75;;;10.27;;
74328;SDS011;62745;51.060;13.786;2022-11-15T10:51:57;16.73;;;9.10;;
74328;SDS011;62745;51.060;13.786;2022-11-15T10:54:27;17.90;;;8.32;;
74328;SDS011;62745;51.060;13.786;2022-11-15T10:57:00;18.02;;;9.57;;
74328;SDS011;62745;51.060;13.786;2022-11-15T10:59:33;19.00;;;9.70;;
74328;SDS011;62745;51.060;13.786;2022-11-15T11:02:02;17.85;;;10.07;;
74328;SDS011;62745;51.060;13.786;2022-11-15T11:04:27;18.35;;;10.02;;
74328;SDS011;62745;51.060;13.786;2022-11-15T11:06:57;18.33;;;9.93;;
74328;SDS011;62745;51.060;13.786;2022-11-15T11:12:00;16.52;;;8.77;;
74328;SDS011;62745;51.060;13.786;2022-11-15T11:14:27;17.50;;;8.57;;
74328;SDS011;62745;51.060;13.786;2022-11-15T11:17:05;16.55;;;9.73;;
74328;SDS011;62745;51.060;13.786;2022-11-15T11:25:14;18.33;;;8.93;;
74328;SDS011;62745;51.060;13.786;2022-11-15T11:27:57;17.88;;;9.05;;
74328;SDS011;62745;51.060;13.786;2022-11-15T11:30:49;17.20;;;9.18;;
74328;SDS011;62745;51.060;13.786;2022-11-15T11:39:32;16.70;;;8.38;;
74328;SDS011;62745;51.060;13.786;2022-11-15T11:42:04;14.30;;;8.15;;
74328;SDS011;62745;51.060;13.786;2022-11-15T11:44:49;17.23;;;9.05;;
74328;SDS011;62745;51.060;13.786;2022-11-15T11:47:24;16.92;;;8.88;;
74328;SDS011;62745;51.060;13.786;2022-11-15T11:50:01;16.40;;;9.63;;
74328;SDS011;62745;51.060;13.786;2022-11-15T11:52:42;17.52;;;10.18;;
74328;SDS011;62745;51.060;13.786;2022-11-15T11:55:13;15.98;;;9.18;;
74328;SDS011;62745;51.060;13.786;2022-11-15T11:57:52;17.45;;;9.68;;
74328;SDS011;62745;51.060;13.786;2022-11-15T12:01:03;17.55;;;10.77;;
74328;SDS011;62745;51.060;13.786;2022-11-15T12:06:42;17.17;;;10.68;;
74328;SDS011;62745;51.060;13.786;2022-11-15T12:09:17;16.42;;;9.65;;
74328;SDS011;62745;51.060;13.786;2022-11-15T12:11:54;16.85;;;9.70;;
74328;SDS011;62745;51.060;13.786;2022-11-15T12:14:31;16.38;;;10.30;;
74328;SDS011;62745;51.060;13.786;2022-11-15T12:17:02;17.10;;;9.18;;
74328;SDS011;62745;51.060;13.786;2022-11-15T12:19:28;16.15;;;10.27;;
74328;SDS011;62745;51.060;13.786;2022-11-15T12:22:05;15.98;;;8.75;;
74328;SDS011;62745;51.060;13.786;2022-11-15T12:24:39;17.13;;;9.13;;
74328;SDS011;62745;51.060;13.786;2022-11-15T12:30:24;14.65;;;8.18;;
74328;SDS011;62745;51.060;13.786;2022-11-15T12:33:09;15.85;;;9.00;;
74328;SDS011;62745;51.060;13.786;2022-11-15T12:35:59;18.33;;;9.15;;
74328;SDS011;62745;51.060;13.786;2022-11-15T12:41:17;16.05;;;8.60;;
74328;SDS011;62745;51.060;13.786;2022-11-15T12:43:44;16.17;;;8.90;;
74328;SDS011;62745;51.060;13.786;2022-11-15T12:56:19;18.33;;;9.03;;
74328;SDS011;62745;51.060;13.786;2022-11-15T12:58:59;17.33;;;9.23;;
74328;SDS011;62745;51.060;13.786;2022-11-15T13:06:48;15.60;;;9.32;;
74328;SDS011;62745;51.060;13.786;2022-11-15T13:11:59;19.95;;;9.68;;
74328;SDS011;62745;51.060;13.786;2022-11-15T13:17:55;16.38;;;9.63;;
74328;SDS011;62745;51.060;13.786;2022-11-15T13:20:31;17.80;;;9.05;;
74328;SDS011;62745;51.060;13.786;2022-11-15T13:30:38;17.15;;;8.65;;
74328;SDS011;62745;51.060;13.786;2022-11-15T13:33:27;17.95;;;8.73;;
74328;SDS011;62745;51.060;13.786;2022-11-15T13:35:58;19.40;;;9.48;;
74328;SDS011;62745;51.060;13.786;2022-11-15T13:40:55;15.32;;;8.65;;
74328;SDS011;62745;51.060;13.786;2022-11-15T13:48:57;15.23;;;8.82;;
74328;SDS011;62745;51.060;13.786;2022-11-15T13:53:58;17.23;;;8.45;;
74328;SDS011;62745;51.060;13.786;2022-11-15T13:56:33;15.98;;;9.10;;
74328;SDS011;62745;51.060;13.786;2022-11-15T13:58:59;16.70;;;10.23;;
74328;SDS011;62745;51.060;13.786;2022-11-15T14:01:26;18.27;;;10.15;;
74328;SDS011;62745;51.060;13.786;2022-11-15T14:03:56;20.30;;;9.50;;
74328;SDS011;62745;51.060;13.786;2022-11-15T14:06:24;19.95;;;11.32;;
74328;SDS011;62745;51.060;13.786;2022-11-15T14:11:35;17.38;;;9.63;;
74328;SDS011;62745;51.060;13.786;2022-11-15T14:16:36;17.50;;;8.63;;
74328;SDS011;62745;51.060;13.786;2022-11-15T14:19:06;15.93;;;9.05;;
74328;SDS011;62745;51.060;13.786;2022-11-15T14:22:06;16.67;;;10.38;;
74328;SDS011;62745;51.060;13.786;2022-11-15T14:24:38;16.38;;;9.23;;
74328;SDS011;62745;51.060;13.786;2022-11-15T14:27:18;16.83;;;9.18;;
74328;SDS011;62745;51.060;13.786;2022-11-15T14:29:45;19.80;;;9.43;;
74328;SDS011;62745;51.060;13.786;2022-11-15T14:32:15;16.60;;;9.25;;
74328;SDS011;62745;51.060;13.786;2022-11-15T14:34:43;17.27;;;8.95;;
74328;SDS011;62745;51.060;13.786;2022-11-15T14:37:15;18.30;;;9.95;;
74328;SDS011;62745;51.060;13.786;2022-11-15T14:39:50;16.45;;;9.30;;
74328;SDS011;62745;51.060;13.786;2022-11-15T14:42:17;19.23;;;9.85;;
74328;SDS011;62745;51.060;13.786;2022-11-15T14:44:43;16.85;;;9.77;;
74328;SDS011;62745;51.060;13.786;2022-11-15T14:47:08;17.83;;;8.70;;
74328;SDS011;62745;51.060;13.786;2022-11-15T14:49:33;15.80;;;8.33;;
74328;SDS011;62745;51.060;13.786;2022-11-15T14:51:59;18.50;;;10.10;;
74328;SDS011;62745;51.060;13.786;2022-11-15T14:54:24;18.73;;;9.53;;
74328;SDS011;62745;51.060;13.786;2022-11-15T14:56:49;18.43;;;9.67;;
74328;SDS011;62745;51.060;13.786;2022-11-15T14:59:14;18.53;;;9.87;;
74328;SDS011;62745;51.060;13.786;2022-11-15T15:01:40;19.83;;;9.50;;
74328;SDS011;62745;51.060;13.786;2022-11-15T15:04:05;19.47;;;10.73;;
74328;SDS011;62745;51.060;13.786;2022-11-15T15:06:30;20.35;;;10.82;;
74328;SDS011;62745;51.060;13.786;2022-11-15T15:08:56;17.37;;;8.70;;
74328;SDS011;62745;51.060;13.786;2022-11-15T15:11:22;18.23;;;9.30;;
74328;SDS011;62745;51.060;13.786;2022-11-15T15:13:50;23.67;;;11.68;;
74328;SDS011;62745;51.060;13.786;2022-11-15T15:16:17;21.95;;;11.43;;
74328;SDS011;62745;51.060;13.786;2022-11-15T15:18:42;20.07;;;11.77;;
74328;SDS011;62745;51.060;13.786;2022-11-15T15:21:15;19.98;;;11.07;;
74328;SDS011;62745;51.060;13.786;2022-11-15T15:23:44;18.38;;;10.90;;
74328;SDS011;62745;51.060;13.786;2022-11-15T15:26:10;17.70;;;10.50;;
74328;SDS011;62745;51.060;13.786;2022-11-15T15:28:35;18.90;;;10.90;;
74328;SDS011;62745;51.060;13.786;2022-11-15T15:31:00;22.02;;;11.32;;
74328;SDS011;62745;51.060;13.786;2022-11-15T15:33:26;19.15;;;9.77;;
74328;SDS011;62745;51.060;13.786;2022-11-15T15:35:52;20.85;;;10.88;;
74328;SDS011;62745;51.060;13.786;2022-11-15T15:38:17;19.75;;;9.82;;
74328;SDS011;62745;51.060;13.786;2022-11-15T15:40:42;20.58;;;10.30;;
74328;SDS011;62745;51.060;13.786;2022-11-15T15:43:08;21.63;;;11.23;;
74328;SDS011;62745;51.060;13.786;2022-11-15T15:45:34;20.40;;;11.18;;
74328;SDS011;62745;51.060;13.786;2022-11-15T15:48:02;22.35;;;10.80;;
74328;SDS011;62745;51.060;13.786;2022-11-15T15:50:29;24.83;;;11.75;;
74328;SDS011;62745;51.060;13.786;2022-11-15T15:52:58;23.23;;;11.02;;
74328;SDS011;62745;51.060;13.786;2022-11-15T15:55:24;20.48;;;10.63;;
74328;SDS011;62745;51.060;13.786;2022-11-15T15:57:50;23.35;;;11.65;;
74328;SDS011;62745;51.060;13.786;2022-11-15T16:00:16;20.13;;;10.90;;
74328;SDS011;62745;51.060;13.786;2022-11-15T16:02:42;21.40;;;9.88;;
74328;SDS011;62745;51.060;13.786;2022-11-15T16:05:07;24.27;;;11.13;;
74328;SDS011;62745;51.060;13.786;2022-11-15T16:07:34;21.95;;;10.88;;
74328;SDS011;62745;51.060;13.786;2022-11-15T16:09:59;21.38;;;10.63;;
74328;SDS011;62745;51.060;13.786;2022-11-15T16:12:25;23.38;;;11.48;;
74328;SDS011;62745;51.060;13.786;2022-11-15T16:14:50;21.80;;;10.75;;
74328;SDS011;62745;51.060;13.786;2022-11-15T16:17:20;23.48;;;10.85;;
74328;SDS011;62745;51.060;13.786;2022-11-15T16:19:47;22.95;;;10.95;;
74328;SDS011;62745;51.060;13.786;2022-11-15T16:22:12;25.73;;;10.98;;
74328;SDS011;62745;51.060;13.786;2022-11-15T16:24:38;24.10;;;11.43;;
74328;SDS011;62745;51.060;13.786;2022-11-15T16:27:03;21.50;;;11.40;;
74328;SDS011;62745;51.060;13.786;2022-11-15T16:29:29;23.15;;;11.13;;
74328;SDS011;62745;51.060;13.786;2022-11-15T16:31:54;22.27;;;11.18;;